createdAt,value
2023-02-16T00:02:50.781Z,100949.41
2023-02-16T00:05:54.511Z,100944.78
2023-02-16T00:08:59.848Z,100949.97
2023-02-16T00:12:20.847Z,100956.53
2023-02-16T00:15:24.744Z,100953.03
2023-02-16T00:18:28.372Z,100947.81
2023-02-16T00:21:32.648Z,100942.06
2023-02-16T00:24:38.115Z,100941.50
2023-02-16T00:27:41.767Z,100935.28
2023-02-16T00:30:45.519Z,100937.03
2023-02-16T00:33:51.051Z,100945.91
2023-02-16T00:36:58.295Z,100935.88
2023-02-16T00:40:04.143Z,100934.69
2023-02-16T00:43:09.029Z,100933.97
2023-02-16T00:46:14.859Z,100937.22
2023-02-16T00:49:19.785Z,100926.53
2023-02-16T00:52:36.269Z,100937.72
2023-02-16T00:55:43.084Z,100933.47
2023-02-16T00:58:47.180Z,100928.19
2023-02-16T01:01:51.613Z,100930.88
2023-02-16T01:04:55.568Z,100927.34
2023-02-16T01:08:17.073Z,100932.38
2023-02-16T01:11:24.239Z,100932.56
2023-02-16T01:14:28.216Z,100936.47
2023-02-16T01:17:32.030Z,100940.06
2023-02-16T01:20:36.794Z,100929.03
2023-02-16T01:23:40.509Z,100926.91
2023-02-16T01:26:49.112Z,100923.59
2023-02-16T01:29:52.727Z,100922.03
2023-02-16T01:32:56.807Z,100919.06
2023-02-16T01:36:00.704Z,100920.06
2023-02-16T01:39:05.476Z,100922.16
2023-02-16T01:42:31.195Z,100915.25
2023-02-16T01:45:39.427Z,100919.47
2023-02-16T01:48:43.248Z,100928.56
2023-02-16T01:51:54.670Z,100922.44
2023-02-16T01:55:06.780Z,100919.56
2023-02-16T01:58:16.717Z,100916.03
2023-02-16T02:01:54.621Z,100922.91
2023-02-16T02:05:19.407Z,100916.72
2023-02-16T02:08:30.897Z,100908.78
2023-02-16T02:11:38.749Z,100912.13
2023-02-16T02:14:44.444Z,100919.91
2023-02-16T02:17:49.853Z,100916.00
2023-02-16T02:21:24.313Z,100909.47
2023-02-16T02:25:05.592Z,100915.13
2023-02-16T02:28:17.124Z,100918.66
2023-02-16T02:31:31.684Z,100915.09
2023-02-16T02:34:48.708Z,100913.53
2023-02-16T02:38:00.169Z,100918.88
2023-02-16T02:41:15.122Z,100922.44
2023-02-16T02:44:24.173Z,100925.06
2023-02-16T02:47:40.043Z,100922.69
2023-02-16T02:51:11.996Z,100923.34
2023-02-16T02:54:38.042Z,100921.34
2023-02-16T02:58:15.389Z,100924.81
2023-02-16T03:01:23.372Z,100926.97
2023-02-16T03:04:32.378Z,100929.94
2023-02-16T03:07:48.194Z,100934.94
2023-02-16T03:11:13.080Z,100927.63
2023-02-16T03:14:20.612Z,100920.56
2023-02-16T03:17:50.497Z,100931.53
2023-02-16T03:21:11.902Z,100922.56
2023-02-16T03:24:38.030Z,100925.16
2023-02-16T03:28:01.855Z,100929.84
2023-02-16T03:31:07.976Z,100934.44
2023-02-16T03:34:13.800Z,100930.81
2023-02-16T03:37:17.901Z,100921.72
2023-02-16T03:40:33.516Z,100921.84
2023-02-16T03:43:37.090Z,100918.09
2023-02-16T03:46:40.738Z,100918.19
2023-02-16T03:49:45.855Z,100922.63
2023-02-16T03:52:49.993Z,100915.09
2023-02-16T03:55:53.663Z,100914.69
2023-02-16T03:58:57.441Z,100916.38
2023-02-16T04:02:01.463Z,100919.25
2023-02-16T04:05:07.315Z,100916.22
2023-02-16T04:08:11.774Z,100913.53
2023-02-16T04:11:32.440Z,100913.28
2023-02-16T04:14:36.141Z,100913.06
2023-02-16T04:17:39.801Z,100911.75
2023-02-16T04:20:45.392Z,100914.22
2023-02-16T04:23:48.967Z,100908.03
2023-02-16T04:26:52.791Z,100914.72
2023-02-16T04:29:56.535Z,100916.22
2023-02-16T04:33:00.191Z,100913.72
2023-02-16T04:36:05.608Z,100917.56
2023-02-16T04:39:09.293Z,100926.13
2023-02-16T04:42:12.941Z,100918.84
2023-02-16T04:45:16.519Z,100922.78
2023-02-16T04:48:20.196Z,100931.06
2023-02-16T04:51:25.642Z,100924.25
2023-02-16T04:54:29.295Z,100931.16
2023-02-16T04:57:32.874Z,100925.84
2023-02-16T05:00:37.552Z,100939.94
2023-02-16T05:03:41.187Z,100943.03
2023-02-16T05:06:46.488Z,100938.91
2023-02-16T05:09:50.219Z,100953.16
2023-02-16T05:13:11.132Z,100953.78
2023-02-16T05:16:14.988Z,100948.59
2023-02-16T05:19:18.787Z,100956.31
2023-02-16T05:22:24.366Z,100950.81
2023-02-16T05:25:28.116Z,100952.25
2023-02-16T05:28:31.915Z,100950.50
2023-02-16T05:31:35.948Z,100942.75
2023-02-16T05:34:39.768Z,100955.91
2023-02-16T05:37:45.038Z,100958.25
2023-02-16T05:40:49.261Z,100965.31
2023-02-16T05:43:54.489Z,100962.63
2023-02-16T05:46:58.263Z,100967.81
2023-02-16T05:50:01.872Z,100972.59
2023-02-16T05:53:07.140Z,100975.50
2023-02-16T05:56:11.425Z,100975.06
2023-02-16T05:59:16.253Z,100979.13
2023-02-16T06:02:20.091Z,100982.81
2023-02-16T06:05:23.864Z,100981.72
2023-02-16T06:08:29.606Z,100986.44
2023-02-16T06:11:39.222Z,100989.22
2023-02-16T06:14:42.994Z,100986.22
2023-02-16T06:17:46.712Z,100987.84
2023-02-16T06:20:50.935Z,100988.81
2023-02-16T06:23:56.224Z,100992.94
2023-02-16T06:27:00.057Z,100992.34
2023-02-16T06:30:04.554Z,100994.53
2023-02-16T06:33:08.463Z,101002.50
2023-02-16T06:36:13.203Z,101005.19
2023-02-16T06:39:18.443Z,100997.09
2023-02-16T06:42:22.242Z,101000.91
2023-02-16T06:45:25.940Z,101005.72
2023-02-16T06:48:29.801Z,101004.00
2023-02-16T06:51:33.704Z,101002.28
2023-02-16T06:54:38.900Z,101001.56
2023-02-16T06:57:42.695Z,101005.66
2023-02-16T07:00:46.667Z,101008.03
2023-02-16T07:03:51.927Z,101015.88
2023-02-16T07:06:55.845Z,101019.78
2023-02-16T07:10:02.921Z,101018.19
2023-02-16T07:13:06.683Z,101021.13
2023-02-16T07:16:11.237Z,101022.97
2023-02-16T07:19:15.031Z,101012.84
2023-02-16T07:22:22.861Z,101020.66
2023-02-16T07:25:30.241Z,101015.97
2023-02-16T07:28:34.381Z,101015.31
2023-02-16T07:31:38.191Z,101014.03
2023-02-16T07:34:42.071Z,101013.91
2023-02-16T07:37:45.927Z,101013.88
2023-02-16T07:40:51.042Z,101011.31
2023-02-16T07:43:55.020Z,101015.88
2023-02-16T07:46:58.777Z,101009.97
2023-02-16T07:50:02.752Z,101010.50
2023-02-16T07:53:06.683Z,101013.78
2023-02-16T07:56:20.973Z,101013.28
2023-02-16T07:59:24.767Z,101016.44
2023-02-16T08:02:28.805Z,101018.88
2023-02-16T08:05:32.699Z,101016.50
2023-02-16T08:08:37.144Z,101013.22
2023-02-16T08:11:42.867Z,101020.00
2023-02-16T08:14:48.108Z,101018.22
2023-02-16T08:17:51.931Z,101023.22
2023-02-16T08:21:04.214Z,101020.19
2023-02-16T08:24:09.812Z,101019.59
2023-02-16T08:27:15.134Z,101015.72
2023-02-16T08:30:20.802Z,101026.81
2023-02-16T08:33:25.923Z,101014.41
2023-02-16T08:36:32.680Z,101019.38
2023-02-16T08:39:37.407Z,101016.53
2023-02-16T08:42:42.751Z,101009.06
2023-02-16T08:45:47.867Z,101015.59
2023-02-16T08:48:51.752Z,101009.09
2023-02-16T08:51:57.632Z,101002.69
2023-02-16T08:55:01.428Z,101005.31
2023-02-16T08:58:06.783Z,101004.47
2023-02-16T09:01:13.286Z,100994.56
2023-02-16T09:04:18.079Z,101000.75
2023-02-16T09:07:22.506Z,100995.22
2023-02-16T09:10:26.273Z,100991.78
2023-02-16T09:13:31.574Z,101000.59
2023-02-16T09:16:38.695Z,100989.81
2023-02-16T09:19:43.819Z,100993.06
2023-02-16T09:22:48.790Z,100986.03
2023-02-16T09:25:52.529Z,100983.50
2023-02-16T09:28:59.103Z,100977.97
2023-02-16T09:32:03.250Z,100982.72
2023-02-16T09:35:07.963Z,100980.16
2023-02-16T09:38:11.731Z,100977.84
2023-02-16T09:41:26.585Z,100973.09
2023-02-16T09:44:40.040Z,100967.53
2023-02-16T09:47:48.173Z,100966.47
2023-02-16T09:50:55.458Z,100968.25
2023-02-16T09:54:04.117Z,100956.94
2023-02-16T09:57:17.952Z,100964.00
2023-02-16T10:00:36.012Z,100955.63
2023-02-16T10:03:56.646Z,100950.50
2023-02-16T10:07:11.063Z,100945.00
2023-02-16T10:10:20.433Z,100946.75
2023-02-16T10:13:34.083Z,100937.97
2023-02-16T10:16:44.195Z,100935.88
2023-02-16T10:19:54.905Z,100938.69
2023-02-16T10:23:06.735Z,100935.03
2023-02-16T10:26:19.216Z,100924.16
2023-02-16T10:29:24.448Z,100920.56
2023-02-16T10:32:37.301Z,100922.50
2023-02-16T10:35:47.986Z,100922.19
2023-02-16T10:38:59.297Z,100917.25
2023-02-16T10:42:10.122Z,100910.34
2023-02-16T10:45:27.205Z,100901.78
2023-02-16T10:48:33.624Z,100907.97
2023-02-16T10:51:40.762Z,100903.25
2023-02-16T10:54:44.620Z,100894.56
2023-02-16T10:57:56.266Z,100893.56
2023-02-16T11:01:08.681Z,100885.69
2023-02-16T11:04:31.896Z,100886.22
2023-02-16T11:07:35.689Z,100879.19
2023-02-16T11:10:42.886Z,100868.56
2023-02-16T11:13:50.260Z,100869.72
2023-02-16T11:17:05.803Z,100861.16
2023-02-16T11:20:31.349Z,100858.19
2023-02-16T11:23:36.372Z,100854.03
2023-02-16T11:26:40.212Z,100847.78
2023-02-16T11:29:43.979Z,100847.69
2023-02-16T11:32:47.829Z,100838.38
2023-02-16T11:35:53.306Z,100840.06
2023-02-16T11:38:59.739Z,100832.16
2023-02-16T11:42:06.574Z,100830.78
2023-02-16T11:45:22.974Z,100822.81
2023-02-16T11:48:29.450Z,100820.41
2023-02-16T11:51:36.740Z,100816.56
2023-02-16T11:54:50.566Z,100811.06
2023-02-16T11:57:56.652Z,100812.13
2023-02-16T12:01:11.251Z,100809.03
2023-02-16T12:04:29.457Z,100794.31
2023-02-16T12:07:42.454Z,100800.38
2023-02-16T12:11:03.409Z,100789.72
2023-02-16T12:14:24.562Z,100788.72
2023-02-16T12:17:49.501Z,100779.75
2023-02-16T12:21:00.366Z,100784.00
2023-02-16T12:24:18.171Z,100765.94
2023-02-16T12:27:27.552Z,100767.41
2023-02-16T12:30:42.304Z,100760.63
2023-02-16T12:33:53.431Z,100750.16
2023-02-16T12:37:05.909Z,100747.41
2023-02-16T12:40:25.821Z,100750.91
2023-02-16T12:43:39.249Z,100739.25
2023-02-16T12:46:44.973Z,100744.25
2023-02-16T12:49:55.263Z,100737.47
2023-02-16T12:53:04.169Z,100725.31
2023-02-16T12:56:14.267Z,100727.84
2023-02-16T12:59:24.016Z,100720.06
2023-02-16T13:02:33.587Z,100716.66
2023-02-16T13:05:39.611Z,100717.28
2023-02-16T13:08:49.979Z,100707.28
2023-02-16T13:12:02.451Z,100709.06
2023-02-16T13:15:14.708Z,100694.34
2023-02-16T13:18:23.166Z,100695.59
2023-02-16T13:25:29.424Z,100685.31
2023-02-16T13:29:15.028Z,100684.28
2023-02-16T13:32:43.718Z,100679.66
2023-02-16T13:36:13.133Z,100683.22
2023-02-16T13:39:36.066Z,100674.69
2023-02-16T13:43:02.729Z,100670.34
2023-02-16T13:46:14.599Z,100669.88
2023-02-16T13:49:32.830Z,100663.13
2023-02-16T13:52:39.399Z,100665.28
2023-02-16T13:55:43.260Z,100672.19
2023-02-16T13:58:47.046Z,100669.34
2023-02-16T14:01:55.362Z,100663.31
2023-02-16T14:05:05.879Z,100659.75
2023-02-16T14:08:19.117Z,100648.59
2023-02-16T14:11:22.946Z,100654.25
2023-02-16T14:14:31.667Z,100646.97
2023-02-16T14:17:37.195Z,100643.13
2023-02-16T14:20:40.994Z,100653.56
2023-02-16T14:23:46.564Z,100646.13
2023-02-16T14:26:56.481Z,100648.69
2023-02-16T14:30:02.967Z,100647.03
2023-02-16T14:33:22.696Z,100643.97
2023-02-16T14:36:27.914Z,100638.94
2023-02-16T14:39:31.837Z,100637.53
2023-02-16T14:42:37.656Z,100635.28
2023-02-16T14:45:57.988Z,100631.97
2023-02-16T14:49:39.985Z,100627.75
2023-02-16T14:53:16.475Z,100631.66
2023-02-16T14:56:40.743Z,100618.72
2023-02-16T14:59:50.465Z,100619.72
2023-02-16T15:03:00.536Z,100624.25
2023-02-16T15:06:07.523Z,100620.31
2023-02-16T15:09:19.796Z,100613.19
2023-02-16T15:12:28.469Z,100620.63
2023-02-16T15:15:44.994Z,100619.31
2023-02-16T15:18:52.358Z,100627.13
2023-02-16T15:22:10.594Z,100621.06
2023-02-16T15:25:38.706Z,100627.53
2023-02-16T15:28:43.903Z,100630.97
2023-02-16T15:31:48.375Z,100627.25
2023-02-16T15:34:52.254Z,100626.00
2023-02-16T15:38:08.247Z,100632.88
2023-02-16T15:41:16.364Z,100630.13
2023-02-16T15:44:32.863Z,100632.19
2023-02-16T15:47:36.663Z,100630.63
2023-02-16T15:50:40.872Z,100627.06
2023-02-16T15:53:51.836Z,100626.22
2023-02-16T15:56:58.550Z,100629.69
2023-02-16T16:00:07.538Z,100628.72
2023-02-16T16:03:18.572Z,100626.47
2023-02-16T16:06:22.301Z,100630.06
2023-02-16T16:09:28.708Z,100625.19
2023-02-16T16:12:34.188Z,100631.53
2023-02-16T16:15:42.805Z,100633.22
2023-02-16T16:18:49.981Z,100638.09
2023-02-16T16:21:55.926Z,100641.06
2023-02-16T16:24:59.689Z,100642.66
2023-02-16T16:28:06.727Z,100648.72
2023-02-16T16:31:13.854Z,100647.84
2023-02-16T16:34:34.361Z,100652.00
2023-02-16T16:37:38.487Z,100654.81
2023-02-16T16:40:42.282Z,100650.88
2023-02-16T16:43:55.819Z,100657.59
2023-02-16T16:47:12.505Z,100658.13
2023-02-16T16:50:39.637Z,100657.50
2023-02-16T16:53:52.282Z,100661.63
2023-02-16T16:56:56.067Z,100659.53
2023-02-16T17:00:01.309Z,100660.13
2023-02-16T17:03:07.642Z,100665.66
2023-02-16T17:06:11.818Z,100660.16
2023-02-16T17:09:16.981Z,100663.94
2023-02-16T17:12:22.060Z,100662.25
2023-02-16T17:15:35.880Z,100666.25
2023-02-16T17:18:39.915Z,100667.25
2023-02-16T17:21:44.160Z,100664.03
2023-02-16T17:24:48.558Z,100667.69
2023-02-16T17:27:52.451Z,100670.56
2023-02-16T17:30:57.662Z,100663.34
2023-02-16T17:34:02.032Z,100649.50
2023-02-16T17:37:08.149Z,100659.09
2023-02-16T17:40:17.547Z,100653.31
2023-02-16T17:43:22.930Z,100657.38
2023-02-16T17:46:28.888Z,100652.38
2023-02-16T17:49:32.708Z,100651.44
2023-02-16T17:52:37.444Z,100644.28
2023-02-16T17:55:41.252Z,100647.38
2023-02-16T17:58:45.580Z,100640.94
2023-02-16T18:01:50.942Z,100645.56
2023-02-16T18:04:56.310Z,100645.72
2023-02-16T18:08:00.137Z,100647.06
2023-02-16T18:11:04.165Z,100640.38
2023-02-16T18:14:07.907Z,100646.94
2023-02-16T18:17:14.642Z,100644.34
2023-02-16T18:20:18.856Z,100644.00
2023-02-16T18:23:22.792Z,100656.56
2023-02-16T18:26:28.738Z,100648.38
2023-02-16T18:29:32.703Z,100647.44
2023-02-16T18:32:38.026Z,100651.09
2023-02-16T18:35:41.900Z,100646.59
2023-02-16T18:38:45.640Z,100650.41
2023-02-16T18:41:49.475Z,100658.25
2023-02-16T18:44:53.314Z,100657.16
2023-02-16T18:47:58.608Z,100660.13
2023-02-16T18:51:05.675Z,100661.19
2023-02-16T18:54:09.475Z,100659.63
2023-02-16T18:57:13.405Z,100661.31
2023-02-16T19:00:18.688Z,100660.34
2023-02-16T19:03:23.924Z,100657.41
2023-02-16T19:06:28.425Z,100667.56
2023-02-16T19:09:32.189Z,100668.06
2023-02-16T19:12:36.106Z,100665.53
2023-02-16T19:15:39.971Z,100662.09
2023-02-16T19:18:45.221Z,100671.25
2023-02-16T19:21:48.955Z,100667.78
2023-02-16T19:24:52.737Z,100675.75
2023-02-16T19:27:56.611Z,100676.78
2023-02-16T19:31:02.865Z,100670.34
2023-02-16T19:34:08.307Z,100672.03
2023-02-16T19:37:12.065Z,100670.53
2023-02-16T19:40:17.171Z,100675.97
2023-02-16T19:43:21.473Z,100670.16
2023-02-16T19:46:26.052Z,100665.41
2023-02-16T19:49:31.390Z,100669.16
2023-02-16T19:52:35.240Z,100660.88
2023-02-16T19:55:42.151Z,100658.13
2023-02-16T19:58:45.939Z,100654.44
2023-02-16T20:01:49.847Z,100653.59
2023-02-16T20:04:55.419Z,100649.28
2023-02-16T20:07:59.229Z,100643.25
2023-02-16T20:11:06.583Z,100652.59
2023-02-16T20:14:11.274Z,100650.13
2023-02-16T20:17:14.992Z,100652.22
2023-02-16T20:20:20.398Z,100641.69
2023-02-16T20:23:24.182Z,100644.31
2023-02-16T20:26:31.836Z,100640.59
2023-02-16T20:29:36.841Z,100642.78
2023-02-16T20:32:41.225Z,100635.06
2023-02-16T20:35:46.437Z,100640.88
2023-02-16T20:38:51.551Z,100639.56
2023-02-16T20:41:55.443Z,100637.63
2023-02-16T20:44:59.110Z,100634.69
2023-02-16T20:48:04.339Z,100632.66
2023-02-16T20:51:09.965Z,100632.78
2023-02-16T20:54:14.004Z,100637.16
2023-02-16T20:57:26.413Z,100625.59
2023-02-16T21:00:31.284Z,100624.44
2023-02-16T21:03:35.058Z,100625.09
2023-02-16T21:06:40.634Z,100621.84
2023-02-16T21:09:44.307Z,100622.78
2023-02-16T21:12:48.083Z,100622.16
2023-02-16T21:15:51.928Z,100619.47
2023-02-16T21:18:56.312Z,100616.56
2023-02-16T21:22:01.587Z,100623.94
2023-02-16T21:25:05.808Z,100631.16
2023-02-16T21:28:09.704Z,100620.19
2023-02-16T21:31:15.292Z,100628.09
2023-02-16T21:34:19.112Z,100627.66
2023-02-16T21:37:24.411Z,100630.91
2023-02-16T21:40:45.430Z,100625.41
2023-02-16T21:43:49.210Z,100632.41
2023-02-16T21:46:52.973Z,100626.31
2023-02-16T21:49:55.593Z,100624.31
2023-02-16T21:53:00.979Z,100621.00
2023-02-16T21:56:18.310Z,100619.75
2023-02-16T21:59:22.934Z,100627.53
2023-02-16T22:02:26.873Z,100626.72
2023-02-16T22:05:30.740Z,100612.56
2023-02-16T22:08:38.473Z,100610.03
2023-02-16T22:11:42.873Z,100616.84
2023-02-16T22:14:46.598Z,100608.28
2023-02-16T22:17:50.579Z,100609.34
2023-02-16T22:20:54.289Z,100611.28
2023-02-16T22:24:00.976Z,100615.22
2023-02-16T22:27:04.796Z,100618.94
2023-02-16T22:30:09.852Z,100617.22
2023-02-16T22:33:13.629Z,100613.91
2023-02-16T22:36:17.324Z,100610.81
2023-02-16T22:39:22.703Z,100614.38
2023-02-16T22:42:26.562Z,100618.44
2023-02-16T22:45:30.883Z,100611.44
2023-02-16T22:48:34.818Z,100604.75
2023-02-16T22:51:38.837Z,100608.16
2023-02-16T22:54:44.205Z,100606.59
2023-02-16T22:57:47.947Z,100609.28
2023-02-16T23:00:52.361Z,100598.50
2023-02-16T23:03:58.720Z,100597.22
2023-02-16T23:07:02.556Z,100590.22
2023-02-16T23:10:09.279Z,100590.03
2023-02-16T23:13:13.149Z,100582.69
2023-02-16T23:16:20.123Z,100582.25
2023-02-16T23:19:26.623Z,100585.00
2023-02-16T23:22:31.409Z,100574.97
2023-02-16T23:25:36.585Z,100581.53
2023-02-16T23:28:42.479Z,100576.66
2023-02-16T23:34:52.168Z,100574.50
2023-02-16T23:37:55.951Z,100570.41
2023-02-16T23:41:03.275Z,100569.59
2023-02-16T23:44:08.223Z,100573.66
2023-02-16T23:47:11.940Z,100570.34
2023-02-16T23:50:15.804Z,100570.94
2023-02-16T23:53:20.405Z,100573.22
2023-02-16T23:56:27.716Z,100562.94
2023-02-16T23:59:31.823Z,100563.25
